Colville, WA

5:05 PM PST on November 22, 2014 (GMT -0800)
10th Avenue Colville | Change Station
CLOSE
Current Station
Personal Weather Station
Location: Colville, WA
Elevation: 1952 ft
Nearby Weather Stations

Elev 1952 ft 48.55 °N, 117.90 °W | Updated 4 minutes ago

Overcast
Overcast
39.4 °F
Feels Like 39 °F
N
0.0
Wind Variable Wind from North
Gusts 0.0 mph

Today
High -- | Low -- °F
--% Chance of Precip.
Yesterday
High -- | Low -- °F
Precip. -- in
7:10 AM 4:04 PM
New Moon, 0% visible
Pressure 29.82 in
Visibility 10.0 miles
Clouds Few 10000 ft
Windchill 39 °F
Dew Point 32 °F
Humidity 74%
Rainfall 0.01 in
Snow Depth Not available.
UV 0 out of 12
Pollen .10 out of 12
Air Quality Not available.
Flu Activity Not available.
METAR KDEW 230053Z AUTO 19006KT 10SM FEW100 02/M01 A2977 RMK AO2 SLP098 T00221011

More Conditions Fewer Conditions

Pressure 29.82 in
Visibility 10.0 miles
Clouds Few 10000 ft
Windchill 39 °F
Dew Point 32 °F
Humidity 74%
Rainfall 0.01 in
Snow Depth Not available.
UV 0 out of 12
Pollen .10 out of 12
Air Quality Not available.
Flu Activity Not available.
METAR KDEW 230053Z AUTO 19006KT 10SM FEW100 02/M01 A2977 RMK AO2 SLP098 T00221011

More Conditions Fewer Conditions

10-Day Weather Forecast

Almanac

Astronomy

Nov. 22, 2014 Rise Set
Actual Time
Civil Twilight
Nautical Twilight
Astronomical Twilight
Moon
Length of Visible Light
Length of Day
Tomorrow will be .
, % of the Moon is Illuminated

Today's Extremes

State Highs State Lows

Community

WunderPhotos

Upload Photos

1,772,949 photos uploaded!

WunderBlogs® & News

Nearby

Air Quality

  Air Quality AQ Index Pollutant
Not available.

Snow Depth

Station Depth Elevation

Earthquake Activity

City Distance Mag. Time & Date
Minimum magnitude displayed is 2.5.

Coastal Water Temperatures

Place Temperature

Nearby Weather Stations